Time;durP1;ratioP1;P1;durP2;ratioP2;P2;SDS_P1;SDS_P2;PMS_P1;PMS_P2;Temp;Humidity;BMP_temperature;BMP_pressure;BME280_temperature;BME280_humidity;BME280_pressure;Samples;Min_cycle;Max_cycle;Signal;HPM_P1;HPM_P2
2021/06/15 00:02:07;;;;;;;17.85;9.40;;;16.90;99.90;;;18.59;73.63;100853.66;6155838;23;20002;-86
2021/06/15 00:04:32;;;;;;;12.55;7.88;;;16.90;99.90;;;18.55;73.48;100853.66;6156292;23;20010;-87
2021/06/15 00:06:58;;;;;;;13.23;8.98;;;16.80;99.90;;;18.46;73.77;100852.44;6166347;23;20010;-86
2021/06/15 00:09:24;;;;;;;17.80;9.55;;;16.80;99.90;;;18.48;74.12;100852.81;6140783;23;20020;-89
2021/06/15 00:11:50;;;;;;;15.52;8.90;;;16.70;99.90;;;18.44;73.88;100858.50;6129028;23;20067;-89
2021/06/15 00:14:16;;;;;;;20.30;10.35;;;16.70;99.90;;;18.46;73.97;100856.09;6154606;23;20395;-87
2021/06/15 00:16:42;;;;;;;15.27;9.77;;;16.70;99.90;;;18.45;74.37;100857.28;6153538;23;20344;-88
2021/06/15 00:19:08;;;;;;;12.63;8.57;;;16.70;99.90;;;18.42;74.56;100860.94;6154725;23;20494;-88
2021/06/15 00:21:34;;;;;;;14.98;9.27;;;16.70;99.90;;;18.33;74.78;100861.31;6127535;23;20088;-89
2021/06/15 00:23:59;;;;;;;13.70;8.95;;;16.60;99.90;;;18.29;74.96;100857.72;6127690;23;20013;-87
2021/06/15 00:26:25;;;;;;;17.65;9.65;;;16.60;99.90;;;18.25;75.26;100858.91;6129200;23;20017;-88
2021/06/15 00:28:51;;;;;;;12.30;8.38;;;16.50;99.90;;;18.16;75.14;100865.00;6129710;23;20009;-89
2021/06/15 00:31:19;;;;;;;18.23;10.45;;;16.50;99.90;;;18.12;75.51;100863.38;6155558;23;20029;-88
2021/06/15 00:33:44;;;;;;;13.63;10.10;;;16.40;99.90;;;18.02;76.02;100862.16;6147894;23;20014;-88
2021/06/15 00:36:10;;;;;;;17.65;10.70;;;16.40;99.90;;;17.95;76.28;100855.72;6155941;23;20448;-87
2021/06/15 00:38:36;;;;;;;21.77;13.65;;;16.30;99.90;;;17.90;77.63;100854.09;6155275;23;20013;-87
2021/06/15 00:41:02;;;;;;;18.23;11.07;;;16.20;99.90;;;17.91;77.00;100861.34;6156695;23;20450;-88
2021/06/15 00:43:28;;;;;;;21.98;13.25;;;16.20;99.90;;;17.85;77.25;100860.16;6160190;23;20035;-89
2021/06/15 00:45:54;;;;;;;19.42;11.75;;;16.20;99.90;;;17.79;77.14;100859.72;6160600;23;20009;-89
2021/06/15 00:48:35;;;;;;;18.80;13.40;;;16.00;99.90;;;17.71;77.62;100860.13;6158861;23;20343;-88
2021/06/15 00:51:05;;;;;;;17.17;12.55;;;16.00;99.90;;;17.68;78.28;100869.41;6155251;23;20092;-89
2021/06/15 00:53:34;;;;;;;21.60;13.77;;;16.00;99.90;;;17.70;79.03;100861.31;6155183;23;20016;-89
2021/06/15 00:56:00;;;;;;;16.63;12.50;;;16.00;99.90;;;17.76;78.86;100866.16;6154206;23;20467;-85
2021/06/15 00:58:26;;;;;;;23.58;12.50;;;16.00;99.90;;;17.78;78.71;100871.44;6155689;23;20054;-89
2021/06/15 01:00:53;;;;;;;20.35;12.93;;;16.00;99.90;;;17.73;79.07;100875.44;6155472;23;20013;-89
2021/06/15 01:03:22;;;;;;;23.60;13.52;;;16.00;99.90;;;17.62;79.11;100877.47;6155670;23;20013;-89
2021/06/15 01:05:48;;;;;;;16.05;12.05;;;15.90;99.90;;;17.52;79.26;100874.59;6157919;23;20084;-89
2021/06/15 01:08:39;;;;;;;19.80;12.38;;;15.90;99.90;;;17.55;79.81;100873.78;6157738;23;20344;-89
2021/06/15 01:12:02;;;;;;;19.05;11.90;;;15.80;99.90;;;17.62;79.47;100874.66;6158231;23;20033;-90
2021/06/15 01:15:11;;;;;;;20.17;12.20;;;15.90;99.90;;;17.53;79.55;100879.03;6182984;23;20078;-82
2021/06/15 01:17:54;;;;;;;23.15;13.70;;;15.80;99.90;;;17.52;79.97;100877.41;6188620;23;20008;-84
2021/06/15 01:20:44;;;;;;;21.95;13.65;;;15.80;99.90;;;17.50;79.83;100874.19;6163881;23;20023;-85
2021/06/15 01:24:08;;;;;;;21.08;12.63;;;15.80;99.90;;;17.39;80.00;100885.44;6190848;23;20450;-84
2021/06/15 01:26:54;;;;;;;24.40;13.32;;;15.70;99.90;;;17.31;80.73;100886.59;6169929;23;20005;-84
2021/06/15 01:29:38;;;;;;;23.85;13.23;;;15.60;99.90;;;17.26;80.96;100884.19;6169186;23;20508;-84
2021/06/15 01:32:30;;;;;;;18.42;11.25;;;15.50;99.90;;;17.17;81.01;100881.75;6170181;23;20059;-85
2021/06/15 01:34:58;;;;;;;17.75;11.48;;;15.50;99.90;;;17.09;81.48;100877.25;6167590;23;20372;-85
2021/06/15 01:37:32;;;;;;;27.75;13.27;;;15.40;99.90;;;17.11;81.92;100882.53;6171436;23;20020;-80
2021/06/15 01:40:14;;;;;;;22.92;13.52;;;15.40;99.90;;;17.13;82.19;100886.56;6177735;23;20083;-83
2021/06/15 01:43:01;;;;;;;22.92;12.85;;;15.40;99.90;;;17.17;82.31;100883.75;6194747;23;20375;-86
2021/06/15 01:45:53;;;;;;;15.80;10.65;;;15.50;99.90;;;17.11;81.67;100888.16;6166836;23;20070;-85
2021/06/15 01:49:08;;;;;;;13.93;9.90;;;15.40;99.90;;;17.04;81.38;100891.75;6167447;23;20008;-88
2021/06/15 01:51:39;;;;;;;15.68;11.15;;;15.30;99.90;;;16.98;81.68;100890.53;6192313;23;20032;-84
2021/06/15 01:54:11;;;;;;;18.80;11.43;;;15.30;99.90;;;16.97;82.05;100880.44;6165902;23;20008;-84
2021/06/15 01:56:47;;;;;;;35.65;13.50;;;15.20;99.90;;;17.02;82.51;100890.53;6191710;23;20005;-85
2021/06/15 01:59:18;;;;;;;27.25;14.57;;;15.20;99.90;;;17.02;82.37;100888.50;6164359;23;20029;-86
2021/06/15 02:01:51;;;;;;;20.40;13.68;;;15.30;99.90;;;17.05;82.77;100889.75;6191421;23;20055;-86
2021/06/15 02:04:18;;;;;;;22.77;12.48;;;15.30;99.90;;;17.01;82.95;100886.09;6165036;23;20063;-83
2021/06/15 02:06:47;;;;;;;24.08;13.35;;;15.30;99.90;;;17.01;83.29;100889.72;6191380;23;20005;-85
2021/06/15 02:09:14;;;;;;;22.55;14.07;;;15.20;99.90;;;16.97;83.21;100888.91;6191055;23;20386;-83
2021/06/15 02:11:42;;;;;;;21.08;13.35;;;15.20;99.90;;;16.97;83.26;100882.44;6190820;23;20028;-83
2021/06/15 02:14:17;;;;;;;21.98;13.40;;;15.20;99.90;;;16.97;83.58;100891.72;6189613;23;20020;-85
2021/06/15 02:16:53;;;;;;;21.88;14.25;;;15.20;99.90;;;16.97;83.81;100893.72;6191193;23;20063;-84
2021/06/15 02:19:23;;;;;;;22.05;13.60;;;15.20;99.90;;;16.93;83.92;100893.72;6191223;23;20080;-84
2021/06/15 02:21:58;;;;;;;21.95;14.32;;;15.20;99.90;;;16.91;84.37;100904.59;6189106;23;20016;-84
2021/06/15 02:24:39;;;;;;;27.52;16.75;;;15.20;99.90;;;16.99;84.93;100894.94;6189836;23;20008;-86
2021/06/15 02:27:13;;;;;;;30.85;16.85;;;15.20;99.90;;;17.07;84.66;100901.44;6190434;23;20005;-86
2021/06/15 02:29:40;;;;;;;37.95;19.73;;;15.30;99.90;;;17.18;85.86;100899.47;6191939;23;20533;-84
2021/06/15 02:32:12;;;;;;;28.52;18.75;;;15.40;99.90;;;17.30;85.81;100897.13;6192765;23;20009;-84
2021/06/15 02:34:48;;;;;;;30.98;17.77;;;15.50;99.90;;;17.37;85.37;100888.66;6191413;23;20016;-85
2021/06/15 02:37:27;;;;;;;29.08;18.33;;;15.60;99.90;;;17.42;85.62;100895.13;6167148;23;20036;-84
2021/06/15 02:39:59;;;;;;;23.10;17.50;;;15.70;99.90;;;17.49;85.59;100897.97;6168172;23;20005;-84
2021/06/15 02:42:27;;;;;;;27.48;17.25;;;15.70;99.90;;;17.52;85.34;100891.53;6193921;23;20012;-86
2021/06/15 02:44:59;;;;;;;28.48;17.63;;;15.80;99.90;;;17.54;85.48;100894.75;6169019;23;20068;-86
2021/06/15 02:47:33;;;;;;;31.58;18.25;;;15.80;99.90;;;17.53;85.77;100887.50;6195341;23;20016;-84
2021/06/15 02:50:03;;;;;;;26.48;17.45;;;15.80;99.90;;;17.53;85.75;100895.97;6166227;23;20004;-86
2021/06/15 02:53:04;;;;;;;24.77;16.23;;;15.80;99.90;;;17.53;86.01;100898.78;6166536;23;20439;-85
2021/06/15 02:55:40;;;;;;;22.08;15.40;;;15.80;99.90;;;17.49;85.95;100883.84;6183708;23;20220;-82
2021/06/15 02:58:07;;;;;;;26.45;17.77;;;15.70;99.90;;;17.44;85.88;100892.69;6200413;23;20004;-83
2021/06/15 03:00:35;;;;;;;23.92;16.65;;;15.70;99.90;;;17.40;85.95;100892.72;6198336;23;20007;-83
2021/06/15 03:03:05;;;;;;;25.67;17.38;;;15.70;99.90;;;17.37;86.41;100893.47;6165599;23;20016;-84
2021/06/15 03:05:31;;;;;;;24.38;17.33;;;15.60;99.90;;;17.38;86.47;100889.47;6165923;23;20080;-84
2021/06/15 03:07:59;;;;;;;24.15;17.67;;;15.60;99.90;;;17.41;86.86;100891.47;6191246;23;20461;-82
2021/06/15 03:10:26;;;;;;;26.30;18.95;;;15.70;99.90;;;17.43;87.02;100893.94;6165157;23;20083;-84
2021/06/15 03:13:05;;;;;;;31.80;19.77;;;15.70;99.90;;;17.46;87.22;100902.41;6164814;23;20020;-84
2021/06/15 03:15:47;;;;;;;24.30;16.58;;;15.70;99.90;;;17.53;86.95;100907.28;6189184;23;20012;-81
2021/06/15 03:18:30;;;;;;;28.90;19.60;;;15.80;99.90;;;17.62;87.04;100908.53;6185919;23;20008;-83
2021/06/15 03:21:03;;;;;;;31.00;18.70;;;15.80;99.90;;;17.69;86.67;100904.91;6187950;23;20379;-85
2021/06/15 03:23:52;;;;;;;28.10;19.67;;;15.90;99.90;;;17.74;86.30;100904.50;6190091;23;20016;-82
2021/06/15 03:27:04;;;;;;;27.08;17.65;;;15.90;99.90;;;17.77;86.30;100906.53;6189642;23;20415;-83
2021/06/15 03:29:37;;;;;;;31.63;18.85;;;16.00;99.90;;;17.85;85.64;100899.72;6188521;23;20043;-82
2021/06/15 03:32:15;;;;;;;32.08;18.75;;;16.10;99.90;;;17.87;85.49;100909.38;6185068;23;20013;-83
2021/06/15 03:34:52;;;;;;;24.67;17.63;;;16.10;99.90;;;17.92;85.30;100910.22;6210075;23;20001;-81
2021/06/15 03:37:27;;;;;;;29.20;19.13;;;16.10;99.90;;;17.94;84.80;100907.78;6190333;23;20012;-84
2021/06/15 03:39:58;;;;;;;30.13;17.83;;;16.10;99.90;;;17.92;84.94;100913.81;6186808;23;20005;-82
2021/06/15 03:42:38;;;;;;;22.80;15.95;;;16.20;99.90;;;17.97;84.62;100910.63;6188243;23;20028;-84
2021/06/15 03:45:09;;;;;;;25.45;15.50;;;16.20;99.90;;;17.96;84.62;100914.63;6188685;23;20039;-84
2021/06/15 03:47:41;;;;;;;24.33;16.80;;;16.20;99.90;;;17.96;84.41;100908.19;6185971;23;20009;-85
2021/06/15 03:50:12;;;;;;;22.92;15.27;;;16.20;99.90;;;17.97;84.31;100912.63;6187723;23;20036;-86
2021/06/15 03:52:40;;;;;;;24.60;16.02;;;16.20;99.90;;;17.97;84.30;100912.63;6189301;23;20020;-84
2021/06/15 03:55:13;;;;;;;25.27;16.27;;;16.20;99.90;;;18.03;84.10;100913.84;6199035;23;20427;-84
2021/06/15 03:57:44;;;;;;;26.35;17.10;;;16.20;99.90;;;18.03;83.91;100919.50;6195916;23;20055;-84
2021/06/15 04:00:20;;;;;;;22.85;14.45;;;16.30;99.90;;;18.08;83.94;100927.56;6184600;23;20001;-85
2021/06/15 04:02:53;;;;;;;21.27;15.40;;;16.30;99.90;;;18.09;83.90;100926.34;6185154;23;19997;-82
2021/06/15 04:05:26;;;;;;;20.45;14.85;;;16.30;99.90;;;18.15;83.67;100934.03;6185301;23;20009;-84
2021/06/15 04:07:56;;;;;;;23.65;14.90;;;16.30;99.90;;;18.23;83.02;100934.88;6187091;23;20005;-83
2021/06/15 04:10:25;;;;;;;21.98;13.88;;;16.40;99.90;;;18.23;83.01;100944.16;6186236;23;20439;-84
2021/06/15 04:12:53;;;;;;;20.98;14.05;;;16.40;99.90;;;18.23;83.56;100938.50;6187440;23;20005;-84
2021/06/15 04:15:19;;;;;;;23.45;16.05;;;16.40;99.90;;;18.23;83.44;100949.00;6162699;23;20009;-84
2021/06/15 04:17:51;;;;;;;26.05;15.32;;;16.40;99.90;;;18.27;83.54;100950.59;6190533;23;20012;-83
2021/06/15 04:20:29;;;;;;;25.58;15.63;;;16.50;99.90;;;18.35;82.95;100957.06;6187921;23;20085;-81
2021/06/15 04:23:01;;;;;;;25.83;16.25;;;16.50;99.90;;;18.43;82.36;100970.00;6187544;23;20071;-81
2021/06/15 04:25:38;;;;;;;27.88;17.13;;;16.60;99.90;;;18.49;82.47;100964.75;6187279;23;20008;-83
2021/06/15 04:28:05;;;;;;;25.05;18.05;;;16.60;99.90;;;18.55;81.99;100971.66;6187204;23;20001;-82
2021/06/15 04:30:34;;;;;;;22.85;15.30;;;16.70;99.90;;;18.64;82.13;100972.88;6161142;23;20111;-82
2021/06/15 04:33:06;;;;;;;28.42;17.27;;;16.70;99.90;;;18.71;82.07;100969.22;6187219;23;20001;-84
2021/06/15 04:35:43;;;;;;;28.35;14.57;;;16.80;99.90;;;18.79;81.75;100970.81;6161386;23;20013;-82
2021/06/15 04:38:34;;;;;;;24.13;14.50;;;16.90;99.90;;;18.84;81.72;100965.56;6187124;23;20005;-81
2021/06/15 04:41:14;;;;;;;27.42;17.60;;;16.90;99.90;;;18.90;81.02;100961.09;6161896;23;20064;-80
2021/06/15 04:43:52;;;;;;;29.30;17.67;;;17.00;99.90;;;19.05;80.50;100978.03;6188002;23;20036;-81
2021/06/15 04:46:39;;;;;;;19.05;15.10;;;17.00;99.90;;;19.18;80.38;100970.72;6163390;23;20495;-82
2021/06/15 04:49:32;;;;;;;26.50;16.52;;;17.20;99.90;;;19.26;79.13;100966.69;6188489;23;20009;-83
2021/06/15 04:52:05;;;;;;;21.15;14.80;;;17.20;99.90;;;19.30;78.85;100975.94;6187810;23;20005;-83
2021/06/15 04:54:38;;;;;;;26.02;16.15;;;17.30;99.90;;;19.34;78.60;100973.91;6162089;23;20005;-81
2021/06/15 04:57:12;;;;;;;24.40;14.60;;;17.30;99.90;;;19.40;78.64;100980.81;6160254;23;20029;-84
2021/06/15 04:59:42;;;;;;;24.98;14.82;;;17.40;99.90;;;19.59;78.01;100988.00;6186148;23;20008;-84
2021/06/15 05:02:10;;;;;;;24.92;15.38;;;17.50;99.90;;;19.76;76.96;100984.28;6164268;23;20009;-83
2021/06/15 05:04:39;;;;;;;18.15;13.00;;;17.70;99.90;;;20.03;76.19;100991.03;6163915;23;20009;-81
2021/06/15 05:07:10;;;;;;;27.42;16.13;;;17.90;99.90;;;20.22;74.56;100992.53;6191345;23;20005;-84
2021/06/15 05:09:38;;;;;;;18.70;14.00;;;18.10;99.90;;;20.37;74.33;101002.56;6191616;23;20012;-85
2021/06/15 05:12:07;;;;;;;23.52;13.32;;;18.20;99.90;;;20.46;73.91;101009.38;6166038;23;20016;-84
2021/06/15 05:14:38;;;;;;;22.92;15.45;;;18.30;99.90;;;20.41;72.94;101004.19;6184515;23;20101;-85
2021/06/15 05:17:09;;;;;;;25.45;15.35;;;18.40;99.90;;;20.50;72.78;101013.00;6190056;23;20009;-82
2021/06/15 05:19:40;;;;;;;16.10;12.40;;;18.50;99.90;;;20.68;72.61;101012.06;6188895;23;20059;-85
2021/06/15 05:22:30;;;;;;;22.13;13.35;;;18.50;99.90;;;20.66;72.47;101012.47;6190508;23;20076;-83
2021/06/15 05:24:59;;;;;;;21.85;14.10;;;18.60;99.90;;;20.48;72.87;101009.78;6189542;23;20016;-86
2021/06/15 05:27:34;;;;;;;20.02;14.63;;;18.40;99.90;;;20.41;73.35;101021.19;6190699;23;20008;-82
2021/06/15 05:30:04;;;;;;;26.05;15.50;;;18.40;99.90;;;20.64;72.80;101017.78;6187039;23;20009;-85
2021/06/15 05:32:31;;;;;;;21.10;13.70;;;18.50;99.90;;;20.89;71.88;101014.72;6190995;23;20419;-83
2021/06/15 05:35:00;;;;;;;22.95;13.77;;;18.70;99.90;;;21.03;71.31;101014.56;6187133;23;20056;-84
2021/06/15 05:37:27;;;;;;;22.55;16.50;;;18.80;99.90;;;21.17;70.60;101022.97;6187220;23;20013;-84
2021/06/15 05:39:56;;;;;;;25.00;14.32;;;19.00;99.90;;;21.35;69.65;101014.28;6186638;23;20009;-84
2021/06/15 05:42:23;;;;;;;22.88;13.40;;;19.20;99.90;;;21.58;69.05;101020.06;6188636;23;20001;-84
2021/06/15 05:44:49;;;;;;;20.15;14.35;;;19.30;99.90;;;21.75;68.26;101007.69;6212947;23;20019;-87
2021/06/15 05:47:15;;;;;;;18.40;12.95;;;19.40;99.90;;;22.04;67.19;101010.97;6187558;23;20032;-84
2021/06/15 05:49:41;;;;;;;20.33;13.43;;;19.70;99.90;;;22.33;66.29;101011.38;6187845;23;20016;-84
2021/06/15 05:52:12;;;;;;;26.30;14.77;;;20.00;99.90;;;22.55;65.52;101016.28;6189689;23;20012;-84
2021/06/15 05:54:40;;;;;;;22.05;14.35;;;20.10;99.90;;;22.66;64.35;101026.75;6190587;23;20001;-85
2021/06/15 05:57:07;;;;;;;24.02;16.67;;;20.30;99.90;;;22.52;64.90;101014.31;6189361;23;20056;-84
2021/06/15 05:59:35;;;;;;;18.55;12.55;;;20.30;99.90;;;22.81;64.48;101000.44;6187750;23;20016;-83
2021/06/15 06:02:01;;;;;;;23.00;14.95;;;20.50;99.90;;;23.03;63.25;101006.53;6187617;23;20547;-85
2021/06/15 06:04:51;;;;;;;19.30;14.02;;;20.70;99.90;;;23.28;62.45;101006.09;6188647;23;20005;-86
2021/06/15 06:10:04;;;;;;;20.30;14.65;;;21.10;99.90;;;23.83;60.53;101005.38;6198123;23;20019;-85
2021/06/15 06:12:30;;;;;;;20.73;14.27;;;21.30;99.90;;;23.95;60.22;101016.91;6206580;23;20008;-83
2021/06/15 06:14:55;;;;;;;21.85;13.73;;;21.40;99.90;;;24.22;59.31;101018.81;6167337;23;20071;-84
2021/06/15 06:17:21;;;;;;;25.15;16.25;;;21.70;99.90;;;24.28;58.63;101025.59;6164007;23;20005;-83
2021/06/15 06:19:48;;;;;;;22.73;15.27;;;21.90;99.90;;;24.40;58.51;101025.69;6164204;23;20015;-83
2021/06/15 06:22:15;;;;;;;24.80;16.23;;;22.00;99.90;;;24.55;58.34;101029.03;6164170;23;20025;-84
2021/06/15 06:24:41;;;;;;;30.08;19.38;;;22.10;99.90;;;24.68;57.19;101029.94;6163887;23;20009;-84
2021/06/15 06:27:07;;;;;;;22.95;15.45;;;22.20;99.90;;;24.84;57.00;101032.81;6189326;23;20032;-84
2021/06/15 06:29:33;;;;;;;25.25;17.42;;;22.30;99.90;;;25.02;56.75;101038.88;6189320;23;20313;-84
2021/06/15 06:31:59;;;;;;;24.15;15.95;;;22.40;99.90;;;25.05;57.12;101042.88;6161129;23;20016;-84
2021/06/15 06:34:25;;;;;;;24.08;14.80;;;22.50;99.90;;;25.16;56.08;101035.66;6188701;23;20132;-85
2021/06/15 06:36:51;;;;;;;26.08;16.95;;;22.60;99.90;;;25.01;55.58;101037.25;6196404;23;20009;-79
2021/06/15 06:39:17;;;;;;;21.17;13.38;;;22.80;99.90;;;25.47;55.42;101046.66;6172142;23;20439;-80
2021/06/15 06:41:43;;;;;;;23.63;15.15;;;22.90;99.90;;;25.55;54.22;101050.97;6169849;23;20032;-80
2021/06/15 06:44:09;;;;;;;20.98;14.23;;;23.10;99.90;;;25.54;54.60;101057.94;6169057;23;20005;-80
2021/06/15 06:46:35;;;;;;;21.42;14.35;;;23.10;99.90;;;25.23;55.13;101051.81;6168455;23;20053;-83
2021/06/15 06:49:01;;;;;;;20.92;13.15;;;22.80;99.90;;;24.82;55.76;101046.72;6192464;23;20005;-83
2021/06/15 06:51:28;;;;;;;26.15;15.85;;;22.50;99.90;;;24.72;56.55;101052.69;6163128;23;20020;-82
2021/06/15 06:53:54;;;;;;;24.45;16.80;;;22.40;99.90;;;24.62;56.60;101043.94;6163041;23;20008;-84
2021/06/15 06:56:21;;;;;;;25.00;15.23;;;22.40;99.90;;;24.96;55.86;101037.81;6188760;23;20009;-81
2021/06/15 06:58:47;;;;;;;22.38;14.73;;;22.60;99.90;;;25.58;54.31;101053.72;6162632;23;20011;-82
2021/06/15 07:01:14;;;;;;;19.90;14.27;;;22.90;99.90;;;25.89;53.36;101054.03;6161089;23;20081;-82
2021/06/15 07:03:40;;;;;;;23.45;15.55;;;23.20;99.90;;;26.01;53.19;101049.59;6187955;23;20454;-84
2021/06/15 07:06:06;;;;;;;23.00;16.02;;;23.40;99.90;;;26.02;53.05;101054.06;6162745;23;20017;-83
2021/06/15 07:08:32;;;;;;;21.75;14.55;;;23.50;99.90;;;26.29;52.88;101060.22;6192393;23;20009;-84
2021/06/15 07:10:58;;;;;;;21.38;14.55;;;23.70;99.90;;;26.39;52.16;101050.50;6162931;23;20020;-81
2021/06/15 07:13:26;;;;;;;20.67;14.05;;;23.90;99.90;;;26.51;52.07;101058.28;6188620;23;20342;-81
2021/06/15 07:15:52;;;;;;;22.73;14.75;;;23.80;99.90;;;26.67;51.46;101058.19;6188288;23;20004;-84
2021/06/15 07:18:18;;;;;;;22.77;15.70;;;24.00;99.90;;;26.79;51.46;101059.41;6188942;23;20317;-84
2021/06/15 07:20:44;;;;;;;27.67;18.65;;;24.20;99.90;;;26.40;51.46;101059.88;6189331;23;20001;-85
2021/06/15 07:23:10;;;;;;;28.23;16.48;;;24.20;99.90;;;27.11;50.44;101052.63;6187025;23;20001;-81
2021/06/15 07:25:36;;;;;;;27.85;19.55;;;24.50;99.90;;;27.51;49.82;101062.28;6189349;23;20005;-83
2021/06/15 07:28:05;;;;;;;23.48;17.85;;;24.90;99.90;;;27.75;49.07;101051.16;6189098;23;20060;-84
2021/06/15 07:30:31;;;;;;;23.73;19.38;;;24.90;99.90;;;27.71;49.45;101057.03;6187630;23;20009;-86
2021/06/15 07:32:58;;;;;;;23.17;19.10;;;25.00;99.90;;;28.12;48.27;101055.91;6187179;23;20058;-85
2021/06/15 07:35:28;;;;;;;33.30;21.60;;;25.20;99.90;;;28.23;47.87;101061.22;6187804;23;20077;-85
2021/06/15 07:37:56;;;;;;;32.17;23.27;;;25.30;99.90;;;27.86;48.32;101070.84;6188562;23;20081;-83
2021/06/15 07:40:23;;;;;;;26.40;21.90;;;25.00;99.90;;;27.96;48.35;101058.97;6189920;23;20001;-84
2021/06/15 07:42:58;;;;;;;28.98;21.88;;;25.10;99.90;;;28.01;48.82;101063.28;6187989;23;20073;-83
2021/06/15 07:45:30;;;;;;;30.77;24.70;;;25.20;99.90;;;27.87;48.38;101061.75;6191405;23;20036;-84
2021/06/15 07:47:57;;;;;;;32.70;20.80;;;25.10;99.90;;;27.35;49.47;101061.63;6189389;23;20013;-84
2021/06/15 07:50:25;;;;;;;27.00;20.77;;;24.70;99.90;;;26.89;50.43;101063.22;6195338;23;20016;-86
2021/06/15 07:52:51;;;;;;;24.05;18.75;;;24.50;99.90;;;27.36;49.50;101055.41;6190604;23;20438;-85
2021/06/15 07:55:19;;;;;;;27.92;18.98;;;24.60;99.90;;;28.02;48.29;101057.09;6192917;23;20016;-84
2021/06/15 07:57:47;;;;;;;26.92;19.02;;;25.00;99.90;;;27.87;48.27;101055.25;6193509;23;20001;-84
2021/06/15 08:00:17;;;;;;;21.10;16.67;;;25.00;99.90;;;28.10;48.33;101064.19;6194127;23;20005;-85
2021/06/15 08:02:45;;;;;;;27.38;21.08;;;25.10;99.90;;;28.12;47.89;101055.13;6195834;23;20331;-85
2021/06/15 08:05:14;;;;;;;23.63;17.05;;;25.20;99.90;;;28.08;48.24;101065.94;6194087;23;20005;-85
2021/06/15 08:07:41;;;;;;;28.45;20.88;;;25.30;99.90;;;28.25;47.63;101067.31;6193880;23;20009;-85
2021/06/15 08:10:09;;;;;;;24.50;17.70;;;25.50;99.90;;;28.29;47.68;101064.31;6204808;22;20020;-86
2021/06/15 08:12:35;;;;;;;24.83;19.50;;;25.50;99.90;;;28.62;46.95;101069.09;6206221;23;20039;-86
2021/06/15 08:15:01;;;;;;;28.33;18.50;;;25.80;99.90;;;28.94;45.97;101064.09;6187983;23;20017;-82
2021/06/15 08:17:27;;;;;;;21.75;18.10;;;26.00;99.90;;;29.30;44.96;101067.09;6190950;23;20021;-83
2021/06/15 08:19:53;;;;;;;27.33;18.25;;;26.20;99.90;;;29.49;44.35;101057.19;6214591;23;20005;-85
2021/06/15 08:22:18;;;;;;;22.55;14.90;;;26.50;99.90;;;29.83;43.56;101066.81;6214823;23;20013;-84
2021/06/15 08:24:44;;;;;;;19.80;13.95;;;26.70;99.80;;;29.74;43.68;101070.47;6216919;23;20009;-86
2021/06/15 08:27:11;;;;;;;29.85;17.42;;;26.70;98.30;;;29.22;45.19;101049.31;6216442;23;20096;-83
2021/06/15 08:29:37;;;;;;;20.30;15.80;;;26.40;99.90;;;29.43;44.93;101050.50;6190155;23;20486;-82
2021/06/15 08:32:03;;;;;;;23.00;18.38;;;26.50;99.90;;;29.43;44.83;101053.38;6193180;23;20016;-82
2021/06/15 08:34:29;;;;;;;22.92;17.77;;;26.60;99.90;;;29.35;44.77;101048.41;6194722;23;20013;-79
2021/06/15 08:36:55;;;;;;;25.98;19.70;;;26.50;99.30;;;29.14;45.67;101050.09;6217909;23;20033;-81
2021/06/15 08:39:21;;;;;;;25.63;17.80;;;26.50;99.90;;;29.12;45.34;101058.41;6212442;23;20009;-85
2021/06/15 08:41:47;;;;;;;22.75;15.02;;;26.40;99.90;;;29.45;44.51;101058.63;6213608;23;20308;-84
2021/06/15 08:44:13;;;;;;;16.88;12.88;;;26.60;99.30;;;29.50;45.21;101053.06;6188559;23;20061;-84
2021/06/15 08:46:39;;;;;;;27.63;17.13;;;26.70;99.90;;;28.89;45.38;101056.13;6213339;23;20020;-85
2021/06/15 08:49:06;;;;;;;21.08;14.95;;;26.40;98.20;;;28.31;46.93;101047.41;6189981;23;20009;-83
2021/06/15 08:51:35;;;;;;;23.52;16.15;;;25.90;99.90;;;28.17;47.17;101058.16;6187904;23;20102;-83
2021/06/15 08:54:07;;;;;;;20.77;13.88;;;25.60;99.90;;;28.03;47.39;101058.69;6194365;23;20005;-84
2021/06/15 08:56:35;;;;;;;29.30;17.23;;;25.50;99.90;;;27.69;48.30;101062.44;6217599;23;20095;-82
2021/06/15 08:59:29;;;;;;;23.80;16.38;;;25.30;99.90;;;27.22;49.37;101065.34;6211985;23;20005;-82
2021/06/15 09:02:01;;;;;;;19.52;15.10;;;24.90;99.90;;;27.35;49.47;101061.63;6212122;23;20009;-83
2021/06/15 09:04:27;;;;;;;23.05;15.70;;;24.80;99.90;;;27.38;48.85;101064.38;6213451;23;20013;-82
2021/06/15 09:07:10;;;;;;;25.70;16.60;;;24.80;99.90;;;27.68;48.47;101060.81;6188672;23;20009;-83
2021/06/15 09:09:49;;;;;;;18.83;13.57;;;24.90;99.90;;;27.72;49.57;101061.50;6211511;23;20063;-84
2021/06/15 09:12:23;;;;;;;23.98;15.55;;;25.00;99.90;;;27.82;48.59;101056.63;6189516;23;20001;-82
2021/06/15 09:14:55;;;;;;;25.90;17.05;;;25.10;99.90;;;27.78;48.23;101055.94;6189216;23;20057;-85
2021/06/15 09:17:27;;;;;;;19.15;14.60;;;25.10;99.90;;;28.45;47.66;101050.47;6189738;23;20078;-82
2021/06/15 09:20:10;;;;;;;17.33;13.95;;;25.50;99.90;;;29.10;45.95;101064.63;6186729;23;20005;-81
2021/06/15 09:22:38;;;;;;;20.15;15.23;;;26.00;99.90;;;29.39;44.65;101052.72;6188610;23;20024;-82
2021/06/15 09:25:12;;;;;;;23.13;12.85;;;26.40;99.90;;;30.01;43.99;101055.28;6163738;23;20370;-83
2021/06/15 09:27:40;;;;;;;20.83;15.10;;;26.90;99.90;;;30.10;42.84;101055.25;6191254;23;20005;-84
2021/06/15 09:30:13;;;;;;;19.80;13.88;;;27.00;96.00;;;30.46;42.96;101045.72;6190425;23;20390;-83
2021/06/15 09:32:43;;;;;;;19.58;13.77;;;27.40;97.10;;;30.71;42.25;101053.94;6189095;23;20688;-84
2021/06/15 09:35:20;;;;;;;18.42;13.57;;;27.40;94.00;;;30.91;41.26;101044.72;6164673;23;20040;-85
2021/06/15 09:38:00;;;;;;;23.98;15.68;;;27.60;91.50;;;30.50;41.92;101047.16;6193779;23;20036;-84
2021/06/15 09:40:39;;;;;;;20.27;13.85;;;27.40;91.20;;;30.04;42.89;101042.78;6188237;23;20103;-83
2021/06/15 09:43:12;;;;;;;19.40;14.52;;;27.20;91.90;;;29.88;44.18;101043.94;6191024;23;20012;-86
2021/06/15 09:45:45;;;;;;;20.75;15.60;;;27.10;94.80;;;30.49;42.52;101042.69;6192290;23;20004;-83
2021/06/15 09:48:35;;;;;;;20.08;15.02;;;27.50;92.10;;;31.11;41.39;101050.72;6166942;23;20045;-83
2021/06/15 09:51:05;;;;;;;25.52;15.32;;;27.90;90.90;;;30.73;41.63;101042.69;6190132;23;20013;-84
2021/06/15 09:53:43;;;;;;;18.55;13.70;;;27.80;88.70;;;31.01;41.16;101047.09;6190692;23;20005;-86
2021/06/15 09:56:13;;;;;;;25.10;13.13;;;28.00;87.10;;;31.28;40.80;101048.97;6190946;23;20013;-85
2021/06/15 09:58:58;;;;;;;18.42;11.52;;;28.30;83.50;;;30.76;41.52;101042.53;6190219;23;20013;-82
2021/06/15 10:01:43;;;;;;;16.65;13.23;;;28.00;84.60;;;29.68;42.93;101040.72;6190069;23;20001;-83
2021/06/15 10:04:23;;;;;;;19.75;14.20;;;27.10;86.50;;;28.88;43.77;101026.56;6194189;23;20095;-84
2021/06/15 10:06:59;;;;;;;19.55;12.95;;;26.50;89.60;;;28.61;45.40;101035.88;6192957;23;20031;-83
2021/06/15 10:09:37;;;;;;;16.38;11.57;;;26.40;93.40;;;29.25;43.88;101034.00;6192643;23;20004;-83
2021/06/15 10:12:08;;;;;;;15.35;10.82;;;26.60;92.30;;;29.92;42.80;101035.13;6191788;23;20069;-84
2021/06/15 10:14:38;;;;;;;12.25;8.43;;;26.90;92.00;;;30.40;41.48;101033.25;6207455;23;20008;-83
2021/06/15 10:17:04;;;;;;;12.18;8.82;;;27.30;90.20;;;30.78;40.20;101039.97;6194025;23;20001;-83
2021/06/15 10:19:31;;;;;;;14.70;10.82;;;27.70;81.40;;;30.83;39.42;101044.25;6192753;23;20016;-85
2021/06/15 10:21:59;;;;;;;17.85;9.65;;;27.90;77.80;;;30.81;39.82;101043.97;6217333;23;20055;-82
2021/06/15 10:24:26;;;;;;;14.40;9.73;;;28.00;77.30;;;30.53;39.82;101040.41;6192592;23;20016;-82